sensor_id;sensor_type;location;lat;lon;timestamp;P1;durP1;ratioP1;P2;durP2;ratioP2
13568;SDS011;6856;51.460;7.158;2023-12-29T00:00:13;3.63;;;1.40;;
13568;SDS011;6856;51.460;7.158;2023-12-29T00:02:48;4.23;;;1.40;;
13568;SDS011;6856;51.460;7.158;2023-12-29T00:05:23;3.60;;;1.30;;
13568;SDS011;6856;51.460;7.158;2023-12-29T00:07:57;4.27;;;1.33;;
13568;SDS011;6856;51.460;7.158;2023-12-29T00:10:32;3.30;;;1.10;;
13568;SDS011;6856;51.460;7.158;2023-12-29T00:13:08;3.57;;;1.37;;
13568;SDS011;6856;51.460;7.158;2023-12-29T00:15:42;4.33;;;1.47;;
13568;SDS011;6856;51.460;7.158;2023-12-29T00:18:16;3.10;;;1.40;;
13568;SDS011;6856;51.460;7.158;2023-12-29T00:20:49;4.10;;;1.17;;
13568;SDS011;6856;51.460;7.158;2023-12-29T00:23:38;2.17;;;1.27;;
13568;SDS011;6856;51.460;7.158;2023-12-29T00:26:11;3.20;;;1.20;;
13568;SDS011;6856;51.460;7.158;2023-12-29T00:28:47;3.17;;;1.37;;
13568;SDS011;6856;51.460;7.158;2023-12-29T00:31:21;4.47;;;1.10;;
13568;SDS011;6856;51.460;7.158;2023-12-29T00:33:55;3.17;;;1.20;;
13568;SDS011;6856;51.460;7.158;2023-12-29T00:36:30;3.57;;;1.13;;
13568;SDS011;6856;51.460;7.158;2023-12-29T00:39:03;3.33;;;1.10;;
13568;SDS011;6856;51.460;7.158;2023-12-29T00:41:39;2.40;;;1.10;;
13568;SDS011;6856;51.460;7.158;2023-12-29T00:44:15;2.17;;;1.17;;
13568;SDS011;6856;51.460;7.158;2023-12-29T00:46:48;3.50;;;1.57;;
13568;SDS011;6856;51.460;7.158;2023-12-29T00:49:22;3.97;;;1.20;;
13568;SDS011;6856;51.460;7.158;2023-12-29T00:51:56;2.83;;;1.20;;
13568;SDS011;6856;51.460;7.158;2023-12-29T00:54:31;3.40;;;1.20;;
13568;SDS011;6856;51.460;7.158;2023-12-29T00:57:06;3.70;;;1.40;;
13568;SDS011;6856;51.460;7.158;2023-12-29T00:59:42;3.30;;;1.30;;
13568;SDS011;6856;51.460;7.158;2023-12-29T01:02:17;2.00;;;1.20;;
13568;SDS011;6856;51.460;7.158;2023-12-29T01:04:50;3.30;;;1.13;;
13568;SDS011;6856;51.460;7.158;2023-12-29T01:07:25;2.57;;;1.03;;
13568;SDS011;6856;51.460;7.158;2023-12-29T01:09:58;1.90;;;1.20;;
13568;SDS011;6856;51.460;7.158;2023-12-29T01:12:33;2.33;;;1.20;;
13568;SDS011;6856;51.460;7.158;2023-12-29T01:15:09;4.90;;;1.50;;
13568;SDS011;6856;51.460;7.158;2023-12-29T01:17:43;3.50;;;1.47;;
13568;SDS011;6856;51.460;7.158;2023-12-29T01:20:17;2.37;;;1.00;;
13568;SDS011;6856;51.460;7.158;2023-12-29T01:22:51;3.53;;;1.23;;
13568;SDS011;6856;51.460;7.158;2023-12-29T01:25:25;3.43;;;1.20;;
13568;SDS011;6856;51.460;7.158;2023-12-29T01:27:59;3.80;;;1.20;;
13568;SDS011;6856;51.460;7.158;2023-12-29T01:30:35;3.03;;;1.50;;
13568;SDS011;6856;51.460;7.158;2023-12-29T01:33:08;3.23;;;1.07;;
13568;SDS011;6856;51.460;7.158;2023-12-29T01:35:43;2.93;;;1.30;;
13568;SDS011;6856;51.460;7.158;2023-12-29T01:38:16;2.70;;;1.03;;
13568;SDS011;6856;51.460;7.158;2023-12-29T01:40:50;5.03;;;1.57;;
13568;SDS011;6856;51.460;7.158;2023-12-29T01:43:24;4.53;;;1.50;;
13568;SDS011;6856;51.460;7.158;2023-12-29T01:45:59;4.00;;;1.40;;
13568;SDS011;6856;51.460;7.158;2023-12-29T01:48:33;2.73;;;1.30;;
13568;SDS011;6856;51.460;7.158;2023-12-29T01:51:07;2.03;;;1.13;;
13568;SDS011;6856;51.460;7.158;2023-12-29T01:53:43;3.53;;;1.23;;
13568;SDS011;6856;51.460;7.158;2023-12-29T01:56:18;2.57;;;1.30;;
13568;SDS011;6856;51.460;7.158;2023-12-29T01:58:53;3.43;;;1.30;;
13568;SDS011;6856;51.460;7.158;2023-12-29T02:01:45;3.67;;;1.30;;
13568;SDS011;6856;51.460;7.158;2023-12-29T02:04:20;2.63;;;1.40;;
13568;SDS011;6856;51.460;7.158;2023-12-29T02:06:56;2.53;;;1.17;;
13568;SDS011;6856;51.460;7.158;2023-12-29T02:09:31;2.97;;;1.20;;
13568;SDS011;6856;51.460;7.158;2023-12-29T02:12:07;3.13;;;1.30;;
13568;SDS011;6856;51.460;7.158;2023-12-29T02:14:41;4.23;;;1.27;;
13568;SDS011;6856;51.460;7.158;2023-12-29T02:17:18;4.03;;;1.70;;
13568;SDS011;6856;51.460;7.158;2023-12-29T02:19:59;3.67;;;1.33;;
13568;SDS011;6856;51.460;7.158;2023-12-29T02:22:33;4.13;;;1.63;;
13568;SDS011;6856;51.460;7.158;2023-12-29T02:25:09;3.23;;;1.43;;
13568;SDS011;6856;51.460;7.158;2023-12-29T02:27:45;2.47;;;1.20;;
13568;SDS011;6856;51.460;7.158;2023-12-29T02:30:27;3.23;;;1.50;;
13568;SDS011;6856;51.460;7.158;2023-12-29T02:33:10;4.47;;;1.60;;
13568;SDS011;6856;51.460;7.158;2023-12-29T02:35:53;4.00;;;1.77;;
13568;SDS011;6856;51.460;7.158;2023-12-29T02:38:34;3.63;;;1.40;;
13568;SDS011;6856;51.460;7.158;2023-12-29T02:41:09;3.83;;;1.40;;
13568;SDS011;6856;51.460;7.158;2023-12-29T02:43:44;4.37;;;1.50;;
13568;SDS011;6856;51.460;7.158;2023-12-29T02:46:18;3.87;;;1.30;;
13568;SDS011;6856;51.460;7.158;2023-12-29T02:48:53;4.03;;;1.43;;
13568;SDS011;6856;51.460;7.158;2023-12-29T02:51:28;2.80;;;1.43;;
13568;SDS011;6856;51.460;7.158;2023-12-29T02:54:02;4.47;;;1.43;;
13568;SDS011;6856;51.460;7.158;2023-12-29T02:56:40;4.90;;;1.37;;
13568;SDS011;6856;51.460;7.158;2023-12-29T02:59:14;3.00;;;1.43;;
13568;SDS011;6856;51.460;7.158;2023-12-29T03:01:48;1.30;;;1.10;;
13568;SDS011;6856;51.460;7.158;2023-12-29T03:04:22;1.97;;;1.20;;
13568;SDS011;6856;51.460;7.158;2023-12-29T03:06:57;3.07;;;1.60;;
13568;SDS011;6856;51.460;7.158;2023-12-29T03:09:31;3.47;;;1.40;;
13568;SDS011;6856;51.460;7.158;2023-12-29T03:12:09;3.23;;;1.40;;
13568;SDS011;6856;51.460;7.158;2023-12-29T03:14:43;4.63;;;1.40;;
13568;SDS011;6856;51.460;7.158;2023-12-29T03:17:20;3.33;;;1.50;;
13568;SDS011;6856;51.460;7.158;2023-12-29T03:19:54;5.40;;;1.63;;
13568;SDS011;6856;51.460;7.158;2023-12-29T03:22:28;6.43;;;1.60;;
13568;SDS011;6856;51.460;7.158;2023-12-29T03:25:03;4.30;;;1.50;;
13568;SDS011;6856;51.460;7.158;2023-12-29T03:27:39;4.80;;;1.80;;
13568;SDS011;6856;51.460;7.158;2023-12-29T03:30:13;3.37;;;1.40;;
13568;SDS011;6856;51.460;7.158;2023-12-29T03:32:46;5.30;;;1.53;;
13568;SDS011;6856;51.460;7.158;2023-12-29T03:35:21;2.90;;;1.37;;
13568;SDS011;6856;51.460;7.158;2023-12-29T03:37:55;3.40;;;1.57;;
13568;SDS011;6856;51.460;7.158;2023-12-29T03:40:30;6.57;;;1.87;;
13568;SDS011;6856;51.460;7.158;2023-12-29T03:43:08;4.77;;;1.43;;
13568;SDS011;6856;51.460;7.158;2023-12-29T03:45:42;4.90;;;1.57;;
13568;SDS011;6856;51.460;7.158;2023-12-29T03:48:16;3.73;;;1.67;;
13568;SDS011;6856;51.460;7.158;2023-12-29T03:50:50;4.23;;;1.33;;
13568;SDS011;6856;51.460;7.158;2023-12-29T03:53:23;4.73;;;1.60;;
13568;SDS011;6856;51.460;7.158;2023-12-29T03:55:58;7.53;;;1.83;;
13568;SDS011;6856;51.460;7.158;2023-12-29T03:58:33;4.63;;;1.40;;
13568;SDS011;6856;51.460;7.158;2023-12-29T04:01:09;4.43;;;1.53;;
13568;SDS011;6856;51.460;7.158;2023-12-29T04:03:43;4.77;;;1.37;;
13568;SDS011;6856;51.460;7.158;2023-12-29T04:06:19;7.57;;;1.80;;
13568;SDS011;6856;51.460;7.158;2023-12-29T04:08:53;4.30;;;1.40;;
13568;SDS011;6856;51.460;7.158;2023-12-29T04:11:27;6.40;;;1.53;;
13568;SDS011;6856;51.460;7.158;2023-12-29T04:14:03;3.73;;;1.53;;
13568;SDS011;6856;51.460;7.158;2023-12-29T04:16:36;4.73;;;1.60;;
13568;SDS011;6856;51.460;7.158;2023-12-29T04:19:10;3.10;;;1.57;;
13568;SDS011;6856;51.460;7.158;2023-12-29T04:21:46;3.00;;;1.37;;
13568;SDS011;6856;51.460;7.158;2023-12-29T04:24:21;2.90;;;1.30;;
13568;SDS011;6856;51.460;7.158;2023-12-29T04:26:55;4.23;;;1.40;;
13568;SDS011;6856;51.460;7.158;2023-12-29T04:29:32;4.33;;;1.30;;
13568;SDS011;6856;51.460;7.158;2023-12-29T04:32:06;4.00;;;1.20;;
13568;SDS011;6856;51.460;7.158;2023-12-29T04:34:40;3.57;;;1.23;;
13568;SDS011;6856;51.460;7.158;2023-12-29T04:37:15;2.97;;;1.40;;
13568;SDS011;6856;51.460;7.158;2023-12-29T04:39:49;3.53;;;1.63;;
13568;SDS011;6856;51.460;7.158;2023-12-29T04:42:23;3.27;;;1.30;;
13568;SDS011;6856;51.460;7.158;2023-12-29T04:44:58;3.47;;;1.30;;
13568;SDS011;6856;51.460;7.158;2023-12-29T04:47:31;3.27;;;1.27;;
13568;SDS011;6856;51.460;7.158;2023-12-29T04:50:06;3.23;;;1.00;;
13568;SDS011;6856;51.460;7.158;2023-12-29T04:52:41;2.33;;;1.50;;
13568;SDS011;6856;51.460;7.158;2023-12-29T04:55:15;2.00;;;1.00;;
13568;SDS011;6856;51.460;7.158;2023-12-29T04:57:49;3.30;;;1.43;;
13568;SDS011;6856;51.460;7.158;2023-12-29T05:00:24;4.30;;;1.30;;
13568;SDS011;6856;51.460;7.158;2023-12-29T05:02:58;2.47;;;1.10;;
13568;SDS011;6856;51.460;7.158;2023-12-29T05:05:32;3.83;;;1.40;;
13568;SDS011;6856;51.460;7.158;2023-12-29T05:08:06;3.17;;;1.33;;
13568;SDS011;6856;51.460;7.158;2023-12-29T05:10:40;4.93;;;1.60;;
13568;SDS011;6856;51.460;7.158;2023-12-29T05:13:14;3.07;;;1.40;;
13568;SDS011;6856;51.460;7.158;2023-12-29T05:15:54;7.03;;;1.97;;
13568;SDS011;6856;51.460;7.158;2023-12-29T05:18:28;3.17;;;1.43;;
13568;SDS011;6856;51.460;7.158;2023-12-29T05:21:02;3.67;;;1.50;;
13568;SDS011;6856;51.460;7.158;2023-12-29T05:23:37;2.83;;;1.13;;
13568;SDS011;6856;51.460;7.158;2023-12-29T05:26:12;2.47;;;1.20;;
13568;SDS011;6856;51.460;7.158;2023-12-29T05:28:46;4.30;;;1.50;;
13568;SDS011;6856;51.460;7.158;2023-12-29T05:31:22;4.17;;;1.37;;
13568;SDS011;6856;51.460;7.158;2023-12-29T05:33:57;3.43;;;1.30;;
13568;SDS011;6856;51.460;7.158;2023-12-29T05:36:36;3.13;;;1.37;;
13568;SDS011;6856;51.460;7.158;2023-12-29T05:39:10;3.80;;;1.57;;
13568;SDS011;6856;51.460;7.158;2023-12-29T05:41:44;4.13;;;1.30;;
13568;SDS011;6856;51.460;7.158;2023-12-29T05:44:19;3.47;;;1.33;;
13568;SDS011;6856;51.460;7.158;2023-12-29T05:46:55;7.63;;;1.50;;
13568;SDS011;6856;51.460;7.158;2023-12-29T05:49:29;4.20;;;1.57;;
13568;SDS011;6856;51.460;7.158;2023-12-29T05:52:03;3.30;;;1.30;;
13568;SDS011;6856;51.460;7.158;2023-12-29T05:54:38;5.50;;;1.40;;
13568;SDS011;6856;51.460;7.158;2023-12-29T05:57:12;5.27;;;1.20;;
13568;SDS011;6856;51.460;7.158;2023-12-29T05:59:47;3.60;;;1.40;;
13568;SDS011;6856;51.460;7.158;2023-12-29T06:02:23;3.03;;;1.50;;
13568;SDS011;6856;51.460;7.158;2023-12-29T06:04:57;3.07;;;1.20;;
13568;SDS011;6856;51.460;7.158;2023-12-29T06:07:31;2.73;;;1.03;;
13568;SDS011;6856;51.460;7.158;2023-12-29T06:10:06;2.77;;;1.20;;
13568;SDS011;6856;51.460;7.158;2023-12-29T06:12:42;4.67;;;1.70;;
13568;SDS011;6856;51.460;7.158;2023-12-29T06:15:16;2.50;;;1.33;;
13568;SDS011;6856;51.460;7.158;2023-12-29T06:17:53;3.33;;;1.40;;
13568;SDS011;6856;51.460;7.158;2023-12-29T06:20:30;5.00;;;1.53;;
13568;SDS011;6856;51.460;7.158;2023-12-29T06:23:04;2.17;;;1.20;;
13568;SDS011;6856;51.460;7.158;2023-12-29T06:25:39;5.07;;;1.50;;
13568;SDS011;6856;51.460;7.158;2023-12-29T06:28:14;2.87;;;1.37;;
13568;SDS011;6856;51.460;7.158;2023-12-29T06:30:49;5.50;;;1.40;;
13568;SDS011;6856;51.460;7.158;2023-12-29T06:33:24;3.87;;;1.40;;
13568;SDS011;6856;51.460;7.158;2023-12-29T06:36:02;2.60;;;1.03;;
13568;SDS011;6856;51.460;7.158;2023-12-29T06:38:36;2.97;;;1.40;;
13568;SDS011;6856;51.460;7.158;2023-12-29T06:41:10;4.80;;;1.60;;
13568;SDS011;6856;51.460;7.158;2023-12-29T06:43:45;3.57;;;1.80;;
13568;SDS011;6856;51.460;7.158;2023-12-29T06:46:20;4.03;;;1.63;;
13568;SDS011;6856;51.460;7.158;2023-12-29T06:48:55;4.17;;;1.30;;
13568;SDS011;6856;51.460;7.158;2023-12-29T06:51:30;4.73;;;1.40;;
13568;SDS011;6856;51.460;7.158;2023-12-29T06:54:04;3.43;;;1.57;;
13568;SDS011;6856;51.460;7.158;2023-12-29T06:56:40;3.13;;;1.40;;
13568;SDS011;6856;51.460;7.158;2023-12-29T06:59:14;3.07;;;1.00;;
13568;SDS011;6856;51.460;7.158;2023-12-29T07:01:50;4.97;;;1.43;;
13568;SDS011;6856;51.460;7.158;2023-12-29T07:04:26;3.80;;;1.47;;
13568;SDS011;6856;51.460;7.158;2023-12-29T07:07:00;4.10;;;1.67;;
13568;SDS011;6856;51.460;7.158;2023-12-29T07:09:37;3.03;;;1.03;;
13568;SDS011;6856;51.460;7.158;2023-12-29T07:12:15;4.83;;;1.43;;
13568;SDS011;6856;51.460;7.158;2023-12-29T07:14:53;2.80;;;1.13;;
13568;SDS011;6856;51.460;7.158;2023-12-29T07:17:28;2.37;;;1.40;;
13568;SDS011;6856;51.460;7.158;2023-12-29T07:20:07;1.77;;;1.00;;
13568;SDS011;6856;51.460;7.158;2023-12-29T07:22:43;4.37;;;1.30;;
13568;SDS011;6856;51.460;7.158;2023-12-29T07:25:16;3.27;;;1.20;;
13568;SDS011;6856;51.460;7.158;2023-12-29T07:27:51;3.80;;;1.10;;
13568;SDS011;6856;51.460;7.158;2023-12-29T07:30:26;3.40;;;1.30;;
13568;SDS011;6856;51.460;7.158;2023-12-29T07:33:01;2.20;;;1.17;;
13568;SDS011;6856;51.460;7.158;2023-12-29T07:35:37;2.57;;;1.07;;
13568;SDS011;6856;51.460;7.158;2023-12-29T07:38:12;2.43;;;1.27;;
13568;SDS011;6856;51.460;7.158;2023-12-29T07:40:46;2.07;;;1.10;;
13568;SDS011;6856;51.460;7.158;2023-12-29T07:43:20;3.03;;;1.20;;
13568;SDS011;6856;51.460;7.158;2023-12-29T07:45:54;5.63;;;1.40;;
13568;SDS011;6856;51.460;7.158;2023-12-29T07:48:29;4.00;;;1.50;;
13568;SDS011;6856;51.460;7.158;2023-12-29T07:51:09;3.93;;;1.33;;
13568;SDS011;6856;51.460;7.158;2023-12-29T07:53:43;3.70;;;1.40;;
13568;SDS011;6856;51.460;7.158;2023-12-29T07:56:17;4.03;;;1.40;;
13568;SDS011;6856;51.460;7.158;2023-12-29T07:58:51;2.70;;;1.27;;
13568;SDS011;6856;51.460;7.158;2023-12-29T08:01:24;2.87;;;1.10;;
13568;SDS011;6856;51.460;7.158;2023-12-29T08:03:59;3.17;;;1.07;;
13568;SDS011;6856;51.460;7.158;2023-12-29T08:06:35;1.77;;;1.10;;
13568;SDS011;6856;51.460;7.158;2023-12-29T08:09:10;2.73;;;1.20;;
13568;SDS011;6856;51.460;7.158;2023-12-29T08:11:44;3.93;;;1.40;;
13568;SDS011;6856;51.460;7.158;2023-12-29T08:14:18;2.67;;;1.10;;
13568;SDS011;6856;51.460;7.158;2023-12-29T08:16:52;2.77;;;1.10;;
13568;SDS011;6856;51.460;7.158;2023-12-29T08:19:25;3.93;;;1.50;;
13568;SDS011;6856;51.460;7.158;2023-12-29T08:22:03;3.23;;;1.23;;
13568;SDS011;6856;51.460;7.158;2023-12-29T08:24:40;3.13;;;1.37;;
13568;SDS011;6856;51.460;7.158;2023-12-29T08:27:22;3.50;;;1.40;;
13568;SDS011;6856;51.460;7.158;2023-12-29T08:29:59;5.30;;;1.40;;
13568;SDS011;6856;51.460;7.158;2023-12-29T08:32:33;2.63;;;1.00;;
13568;SDS011;6856;51.460;7.158;2023-12-29T08:35:07;4.13;;;1.50;;
13568;SDS011;6856;51.460;7.158;2023-12-29T08:37:43;3.27;;;1.37;;
13568;SDS011;6856;51.460;7.158;2023-12-29T08:40:17;3.53;;;1.10;;
13568;SDS011;6856;51.460;7.158;2023-12-29T08:42:52;3.23;;;1.17;;
13568;SDS011;6856;51.460;7.158;2023-12-29T08:45:26;4.27;;;1.60;;
13568;SDS011;6856;51.460;7.158;2023-12-29T08:48:03;2.83;;;1.20;;
13568;SDS011;6856;51.460;7.158;2023-12-29T08:50:38;2.83;;;1.07;;
13568;SDS011;6856;51.460;7.158;2023-12-29T08:53:13;3.13;;;1.10;;
13568;SDS011;6856;51.460;7.158;2023-12-29T08:55:48;3.47;;;1.07;;
13568;SDS011;6856;51.460;7.158;2023-12-29T08:58:22;2.77;;;1.13;;
13568;SDS011;6856;51.460;7.158;2023-12-29T09:00:56;2.40;;;1.00;;
13568;SDS011;6856;51.460;7.158;2023-12-29T09:03:30;3.70;;;1.30;;
13568;SDS011;6856;51.460;7.158;2023-12-29T09:06:04;3.80;;;1.43;;
13568;SDS011;6856;51.460;7.158;2023-12-29T09:08:42;1.33;;;0.80;;
13568;SDS011;6856;51.460;7.158;2023-12-29T09:11:15;2.50;;;0.90;;
13568;SDS011;6856;51.460;7.158;2023-12-29T09:13:53;4.33;;;1.40;;
13568;SDS011;6856;51.460;7.158;2023-12-29T09:16:27;2.37;;;0.83;;
13568;SDS011;6856;51.460;7.158;2023-12-29T09:19:01;1.90;;;1.10;;
13568;SDS011;6856;51.460;7.158;2023-12-29T09:21:52;1.97;;;0.80;;
13568;SDS011;6856;51.460;7.158;2023-12-29T09:24:28;1.63;;;1.00;;
13568;SDS011;6856;51.460;7.158;2023-12-29T09:27:02;5.13;;;0.87;;
13568;SDS011;6856;51.460;7.158;2023-12-29T09:29:38;1.57;;;0.90;;
13568;SDS011;6856;51.460;7.158;2023-12-29T09:32:12;1.03;;;0.60;;
13568;SDS011;6856;51.460;7.158;2023-12-29T09:34:46;2.07;;;0.90;;
13568;SDS011;6856;51.460;7.158;2023-12-29T09:37:24;3.00;;;0.87;;
13568;SDS011;6856;51.460;7.158;2023-12-29T09:40:00;1.50;;;0.80;;
13568;SDS011;6856;51.460;7.158;2023-12-29T09:42:36;0.83;;;0.70;;
13568;SDS011;6856;51.460;7.158;2023-12-29T09:45:16;1.57;;;1.03;;
13568;SDS011;6856;51.460;7.158;2023-12-29T09:47:58;3.30;;;1.27;;
13568;SDS011;6856;51.460;7.158;2023-12-29T09:50:36;1.27;;;0.70;;
13568;SDS011;6856;51.460;7.158;2023-12-29T09:53:10;1.73;;;0.60;;
13568;SDS011;6856;51.460;7.158;2023-12-29T09:55:47;1.33;;;0.83;;
13568;SDS011;6856;51.460;7.158;2023-12-29T09:58:22;1.60;;;0.70;;
13568;SDS011;6856;51.460;7.158;2023-12-29T10:00:57;1.00;;;0.70;;
13568;SDS011;6856;51.460;7.158;2023-12-29T10:03:32;1.10;;;0.60;;
13568;SDS011;6856;51.460;7.158;2023-12-29T10:06:06;1.70;;;0.87;;
13568;SDS011;6856;51.460;7.158;2023-12-29T10:08:44;1.43;;;0.57;;
13568;SDS011;6856;51.460;7.158;2023-12-29T10:11:24;0.73;;;0.53;;
13568;SDS011;6856;51.460;7.158;2023-12-29T10:13:59;1.47;;;0.90;;
13568;SDS011;6856;51.460;7.158;2023-12-29T10:16:57;1.27;;;0.70;;
13568;SDS011;6856;51.460;7.158;2023-12-29T10:19:41;1.43;;;0.80;;
13568;SDS011;6856;51.460;7.158;2023-12-29T10:22:26;2.17;;;0.80;;
13568;SDS011;6856;51.460;7.158;2023-12-29T10:25:15;0.80;;;0.77;;
13568;SDS011;6856;51.460;7.158;2023-12-29T10:27:53;1.83;;;1.20;;
13568;SDS011;6856;51.460;7.158;2023-12-29T10:30:30;1.10;;;0.83;;
13568;SDS011;6856;51.460;7.158;2023-12-29T10:33:06;0.87;;;0.50;;
13568;SDS011;6856;51.460;7.158;2023-12-29T10:35:41;0.97;;;0.60;;
13568;SDS011;6856;51.460;7.158;2023-12-29T10:38:34;0.70;;;0.50;;
13568;SDS011;6856;51.460;7.158;2023-12-29T10:41:14;1.27;;;0.60;;
13568;SDS011;6856;51.460;7.158;2023-12-29T10:43:53;0.60;;;0.50;;
13568;SDS011;6856;51.460;7.158;2023-12-29T10:46:30;0.50;;;0.50;;
13568;SDS011;6856;51.460;7.158;2023-12-29T10:49:07;1.37;;;0.80;;
13568;SDS011;6856;51.460;7.158;2023-12-29T10:51:44;0.87;;;0.63;;
13568;SDS011;6856;51.460;7.158;2023-12-29T10:54:19;1.07;;;0.70;;
13568;SDS011;6856;51.460;7.158;2023-12-29T10:57:04;2.00;;;0.77;;
13568;SDS011;6856;51.460;7.158;2023-12-29T10:59:39;1.00;;;0.60;;
13568;SDS011;6856;51.460;7.158;2023-12-29T11:02:13;2.00;;;0.83;;
13568;SDS011;6856;51.460;7.158;2023-12-29T11:04:47;2.53;;;0.87;;
13568;SDS011;6856;51.460;7.158;2023-12-29T11:07:30;1.60;;;0.80;;
13568;SDS011;6856;51.460;7.158;2023-12-29T11:10:10;1.63;;;0.70;;
13568;SDS011;6856;51.460;7.158;2023-12-29T11:12:43;2.63;;;1.00;;
13568;SDS011;6856;51.460;7.158;2023-12-29T11:15:21;0.97;;;0.70;;
13568;SDS011;6856;51.460;7.158;2023-12-29T11:17:59;1.57;;;0.93;;
13568;SDS011;6856;51.460;7.158;2023-12-29T11:20:40;2.00;;;0.70;;
13568;SDS011;6856;51.460;7.158;2023-12-29T11:23:18;1.50;;;0.77;;
13568;SDS011;6856;51.460;7.158;2023-12-29T11:25:52;3.13;;;0.90;;
13568;SDS011;6856;51.460;7.158;2023-12-29T11:28:27;1.63;;;0.80;;
13568;SDS011;6856;51.460;7.158;2023-12-29T11:31:03;1.10;;;0.80;;
13568;SDS011;6856;51.460;7.158;2023-12-29T11:33:40;2.33;;;1.00;;
13568;SDS011;6856;51.460;7.158;2023-12-29T11:36:21;2.73;;;0.97;;
13568;SDS011;6856;51.460;7.158;2023-12-29T11:39:09;1.30;;;0.80;;
13568;SDS011;6856;51.460;7.158;2023-12-29T11:41:56;1.60;;;0.87;;
13568;SDS011;6856;51.460;7.158;2023-12-29T11:44:44;1.73;;;0.90;;
13568;SDS011;6856;51.460;7.158;2023-12-29T11:47:37;1.07;;;0.80;;
13568;SDS011;6856;51.460;7.158;2023-12-29T11:50:13;2.20;;;1.00;;
13568;SDS011;6856;51.460;7.158;2023-12-29T11:52:53;4.83;;;1.33;;
13568;SDS011;6856;51.460;7.158;2023-12-29T11:55:28;1.33;;;0.83;;
13568;SDS011;6856;51.460;7.158;2023-12-29T11:58:05;2.17;;;0.90;;
13568;SDS011;6856;51.460;7.158;2023-12-29T12:01:01;2.13;;;1.10;;
13568;SDS011;6856;51.460;7.158;2023-12-29T12:03:36;2.80;;;1.23;;
13568;SDS011;6856;51.460;7.158;2023-12-29T12:06:11;2.87;;;1.00;;
13568;SDS011;6856;51.460;7.158;2023-12-29T12:08:44;1.50;;;1.00;;
13568;SDS011;6856;51.460;7.158;2023-12-29T12:17:28;1.33;;;0.67;;
13568;SDS011;6856;51.460;7.158;2023-12-29T12:20:08;3.00;;;1.10;;
13568;SDS011;6856;51.460;7.158;2023-12-29T12:22:42;1.73;;;0.90;;
13568;SDS011;6856;51.460;7.158;2023-12-29T12:25:20;3.07;;;1.00;;
13568;SDS011;6856;51.460;7.158;2023-12-29T12:27:55;1.63;;;1.00;;
13568;SDS011;6856;51.460;7.158;2023-12-29T12:30:29;1.57;;;1.03;;
13568;SDS011;6856;51.460;7.158;2023-12-29T12:33:07;1.43;;;1.00;;
13568;SDS011;6856;51.460;7.158;2023-12-29T12:35:45;4.13;;;1.37;;
13568;SDS011;6856;51.460;7.158;2023-12-29T12:38:20;1.97;;;0.90;;
13568;SDS011;6856;51.460;7.158;2023-12-29T12:40:55;1.83;;;0.77;;
13568;SDS011;6856;51.460;7.158;2023-12-29T12:43:29;2.90;;;1.13;;
13568;SDS011;6856;51.460;7.158;2023-12-29T12:46:07;1.67;;;0.90;;
13568;SDS011;6856;51.460;7.158;2023-12-29T12:48:43;2.83;;;1.00;;
13568;SDS011;6856;51.460;7.158;2023-12-29T12:51:21;2.10;;;0.97;;
13568;SDS011;6856;51.460;7.158;2023-12-29T12:53:56;2.23;;;1.00;;
13568;SDS011;6856;51.460;7.158;2023-12-29T12:56:31;1.13;;;0.80;;
13568;SDS011;6856;51.460;7.158;2023-12-29T12:59:07;0.93;;;0.67;;
13568;SDS011;6856;51.460;7.158;2023-12-29T13:01:41;2.97;;;0.90;;
13568;SDS011;6856;51.460;7.158;2023-12-29T13:04:18;2.43;;;1.43;;
13568;SDS011;6856;51.460;7.158;2023-12-29T13:06:53;1.67;;;1.00;;
13568;SDS011;6856;51.460;7.158;2023-12-29T13:09:28;1.77;;;1.07;;
13568;SDS011;6856;51.460;7.158;2023-12-29T13:12:08;2.30;;;1.23;;
13568;SDS011;6856;51.460;7.158;2023-12-29T13:14:43;1.30;;;0.90;;
13568;SDS011;6856;51.460;7.158;2023-12-29T13:17:18;1.83;;;0.80;;
13568;SDS011;6856;51.460;7.158;2023-12-29T13:19:55;1.10;;;0.70;;
13568;SDS011;6856;51.460;7.158;2023-12-29T13:22:31;1.43;;;0.73;;
13568;SDS011;6856;51.460;7.158;2023-12-29T13:25:06;1.60;;;0.80;;
13568;SDS011;6856;51.460;7.158;2023-12-29T13:27:44;0.90;;;0.77;;
13568;SDS011;6856;51.460;7.158;2023-12-29T13:30:21;1.57;;;0.73;;
13568;SDS011;6856;51.460;7.158;2023-12-29T13:32:57;2.27;;;0.87;;
13568;SDS011;6856;51.460;7.158;2023-12-29T13:35:35;1.93;;;0.73;;
13568;SDS011;6856;51.460;7.158;2023-12-29T13:38:41;1.17;;;0.70;;
13568;SDS011;6856;51.460;7.158;2023-12-29T13:41:24;1.40;;;0.80;;
13568;SDS011;6856;51.460;7.158;2023-12-29T13:47:05;2.00;;;0.80;;
13568;SDS011;6856;51.460;7.158;2023-12-29T13:49:40;1.40;;;0.80;;
13568;SDS011;6856;51.460;7.158;2023-12-29T13:52:14;1.83;;;1.03;;
13568;SDS011;6856;51.460;7.158;2023-12-29T13:54:53;2.13;;;1.10;;
13568;SDS011;6856;51.460;7.158;2023-12-29T13:57:29;2.40;;;1.17;;
13568;SDS011;6856;51.460;7.158;2023-12-29T14:00:14;1.37;;;1.00;;
13568;SDS011;6856;51.460;7.158;2023-12-29T14:02:57;2.07;;;0.90;;
13568;SDS011;6856;51.460;7.158;2023-12-29T14:05:39;2.10;;;0.90;;
13568;SDS011;6856;51.460;7.158;2023-12-29T14:08:23;0.97;;;0.80;;
13568;SDS011;6856;51.460;7.158;2023-12-29T14:11:00;2.93;;;1.10;;
13568;SDS011;6856;51.460;7.158;2023-12-29T14:13:41;3.20;;;1.10;;
13568;SDS011;6856;51.460;7.158;2023-12-29T14:16:15;3.20;;;1.00;;
13568;SDS011;6856;51.460;7.158;2023-12-29T14:18:52;1.67;;;0.93;;
13568;SDS011;6856;51.460;7.158;2023-12-29T14:21:29;1.73;;;1.10;;
13568;SDS011;6856;51.460;7.158;2023-12-29T14:24:06;2.33;;;1.20;;
13568;SDS011;6856;51.460;7.158;2023-12-29T14:26:53;1.90;;;1.13;;
13568;SDS011;6856;51.460;7.158;2023-12-29T14:29:39;4.87;;;1.27;;
13568;SDS011;6856;51.460;7.158;2023-12-29T14:32:16;1.57;;;0.97;;
13568;SDS011;6856;51.460;7.158;2023-12-29T14:34:53;1.70;;;1.10;;
13568;SDS011;6856;51.460;7.158;2023-12-29T14:37:32;1.37;;;0.90;;
13568;SDS011;6856;51.460;7.158;2023-12-29T14:40:11;1.60;;;0.87;;
13568;SDS011;6856;51.460;7.158;2023-12-29T14:42:47;2.07;;;1.10;;
13568;SDS011;6856;51.460;7.158;2023-12-29T14:45:21;1.27;;;0.80;;
13568;SDS011;6856;51.460;7.158;2023-12-29T14:47:58;2.07;;;1.07;;
13568;SDS011;6856;51.460;7.158;2023-12-29T14:50:36;1.47;;;0.87;;
13568;SDS011;6856;51.460;7.158;2023-12-29T14:53:10;1.90;;;1.00;;
13568;SDS011;6856;51.460;7.158;2023-12-29T14:55:46;1.53;;;1.10;;
13568;SDS011;6856;51.460;7.158;2023-12-29T14:58:23;1.30;;;1.10;;
13568;SDS011;6856;51.460;7.158;2023-12-29T15:00:57;1.30;;;0.93;;
13568;SDS011;6856;51.460;7.158;2023-12-29T15:03:33;1.70;;;0.90;;
13568;SDS011;6856;51.460;7.158;2023-12-29T15:06:08;1.47;;;0.70;;
13568;SDS011;6856;51.460;7.158;2023-12-29T15:08:43;2.53;;;0.80;;
13568;SDS011;6856;51.460;7.158;2023-12-29T15:11:17;0.93;;;0.80;;
13568;SDS011;6856;51.460;7.158;2023-12-29T15:13:57;1.57;;;0.70;;
13568;SDS011;6856;51.460;7.158;2023-12-29T15:16:30;1.40;;;0.90;;
13568;SDS011;6856;51.460;7.158;2023-12-29T15:19:06;1.40;;;0.70;;
13568;SDS011;6856;51.460;7.158;2023-12-29T15:21:41;1.30;;;0.90;;
13568;SDS011;6856;51.460;7.158;2023-12-29T15:24:17;0.73;;;0.70;;
13568;SDS011;6856;51.460;7.158;2023-12-29T15:26:54;0.60;;;0.60;;
13568;SDS011;6856;51.460;7.158;2023-12-29T15:29:30;0.63;;;0.63;;
13568;SDS011;6856;51.460;7.158;2023-12-29T15:32:05;1.40;;;0.97;;
13568;SDS011;6856;51.460;7.158;2023-12-29T15:34:40;0.60;;;0.60;;
13568;SDS011;6856;51.460;7.158;2023-12-29T15:37:14;1.20;;;0.77;;
13568;SDS011;6856;51.460;7.158;2023-12-29T15:39:53;0.50;;;0.50;;
13568;SDS011;6856;51.460;7.158;2023-12-29T15:42:33;0.60;;;0.60;;
13568;SDS011;6856;51.460;7.158;2023-12-29T15:45:10;0.93;;;0.60;;
13568;SDS011;6856;51.460;7.158;2023-12-29T15:47:44;0.73;;;0.50;;
13568;SDS011;6856;51.460;7.158;2023-12-29T15:50:21;0.97;;;0.60;;
13568;SDS011;6856;51.460;7.158;2023-12-29T15:52:55;0.60;;;0.60;;
13568;SDS011;6856;51.460;7.158;2023-12-29T15:55:32;0.50;;;0.50;;
13568;SDS011;6856;51.460;7.158;2023-12-29T15:58:06;0.83;;;0.70;;
13568;SDS011;6856;51.460;7.158;2023-12-29T16:00:41;0.80;;;0.80;;
13568;SDS011;6856;51.460;7.158;2023-12-29T16:03:16;1.30;;;1.00;;